首页
METAR-TAF:

METAR-TAF

机场 :

大加那利岛, 西班牙

大加那利机场

纬度: 27-56N, 经度: 015-23W, 海拔: 23米

当前天气观测

该预报发布于38分钟前的01:00 UTC
风速14节,风向
温度 18°C
湿度 68%
气压 1023 hPa
能见度10公里或以上
少量云层高于3000英尺
多云层高于4500英尺

METAR: GCLP 190100Z 35014KT 9999 FEW030 BKN045 18/12 Q1023 NOSIG

时间: 01:38 (01:38 UTC)

预报

该预报发布于5小时和38分钟前的20:00 UTC
预报有效从18日的 21点(UTC)到 19日的 21点(UTC)
风速15节,风向
能见度10公里或以上
散云层高于3000英尺
几率 40% :
短暂存在
从 18日的 21点(UTC)到 19日的 21点(UTC)
风速15节,风向,有时为25节阵风

TAF: GCLP 182000Z 1821/1921 36015KT 9999 SCT030 TX22/1914Z TN16/1906Z PROB40 TEMPO 1821/1921 36015G25KT

超过4000个机场的气象观测和天气预报(METAR&TAF报告)。

可查询的气象台以黄色和红色小点在地图上表示。

将鼠标移到小点上方,可查看气象台名称。

然后点击查看天气观测和预报。

如需切换地图:点击带黑十字的绿色按钮放大地图;点击带横线的绿色按钮缩小地图;或者点击绿色箭头查看邻近地区的地图。


METAR-TAF: